Gulf Maiden — WY4017 — position and weather

sailwx.info

Track history (hours):
 
Tides and Currents Weather Stations Pressure Air Temp Water Temp Dewpoint Dewpoint Depression Visibility Wind Speed Wind Dir Waves Ship Positions

Gulf Maiden

Owner: GULF MAIDEN CORP, SEATTLE, WA. More information available from US FCC via Universal Licensing System and Coast Guard Vessel Documentation Center.

Last reported at 2018-Apr-23 22:03 UTC. Time now 2018-May-21 01:07 UTC.
Position N 58°18' W 136°14'.
Warning: this ship's position is 27 days out of date.

Length 19 m; draft 2.8 m.

Type: Fishing. MMSI: 368446000.

Date/timePositionNaut miles runAvg speedWind from/ knotsBaromVisibWave heightAir tempDewpointWater temp
2018-Apr-23 22:03N 58°18' W 136°14'1 8.3
2018-Apr-23 21:56N 58°19' W 136°12'4 8.8
2018-Apr-23 21:30N 58°20' W 136°05'4 8.3
2018-Apr-23 21:00N 58°19' W 135°58'4 8.0
2018-Apr-23 20:30N 58°18' W 135°50'4 8.5
2018-Apr-23 20:00N 58°17' W 135°42'  
2018-Apr-18 13:57N 58°14' W 135°23'4 8.1
2018-Apr-18 13:29N 58°15' W 135°30'4 7.9
2018-Apr-18 12:59N 58°16' W 135°37'4 7.6
2018-Apr-18 12:30N 58°17' W 135°44'3 6.4
2018-Apr-18 12:00N 58°18' W 135°49'4 7.2
2018-Apr-18 11:30N 58°19' W 135°56'4 7.4
2018-Apr-18 11:00N 58°20' W 136°03'4 8.6
2018-Apr-18 10:30N 58°19' W 136°11'  
Track history (hours):
 
Tides and Currents Weather Stations Pressure Air Temp Water Temp Dewpoint Dewpoint Depression Visibility Wind Speed Wind Dir Waves Ship Positions

Gulf Maiden

Owner: GULF MAIDEN CORP, SEATTLE, WA. More information available from US FCC via Universal Licensing System and Coast Guard Vessel Documentation Center.

Last reported at 2018-Apr-23 22:03 UTC. Time now 2018-May-21 01:07 UTC.
Position N 58°18' W 136°14'.
Warning: this ship's position is 27 days out of date.

Length 19 m; draft 2.8 m.

Type: Fishing. MMSI: 368446000.

Date/timePositionNaut miles runAvg speedWind from/ knotsBaromVisibWave heightAir tempDewpointWater temp
2018-Apr-23 22:03N 58°18' W 136°14'1 8.3
2018-Apr-23 21:56N 58°19' W 136°12'4 8.8
2018-Apr-23 21:30N 58°20' W 136°05'4 8.3
2018-Apr-23 21:00N 58°19' W 135°58'4 8.0
2018-Apr-23 20:30N 58°18' W 135°50'4 8.5
2018-Apr-23 20:00N 58°17' W 135°42'  
2018-Apr-18 13:57N 58°14' W 135°23'4 8.1
2018-Apr-18 13:29N 58°15' W 135°30'4 7.9
2018-Apr-18 12:59N 58°16' W 135°37'4 7.6
2018-Apr-18 12:30N 58°17' W 135°44'3 6.4
2018-Apr-18 12:00N 58°18' W 135°49'4 7.2
2018-Apr-18 11:30N 58°19' W 135°56'4 7.4
2018-Apr-18 11:00N 58°20' W 136°03'4 8.6
2018-Apr-18 10:30N 58°19' W 136°11'  

Dump ship's entire track history